Time;durP1;ratioP1;P1;durP2;ratioP2;P2;SDS_P1;SDS_P2;PMS_P1;PMS_P2;Temp;Humidity;BMP_temperature;BMP_pressure;BME280_temperature;BME280_humidity;BME280_pressure;Samples;Min_cycle;Max_cycle;Signal;HPM_P1;HPM_P2
2023/10/24 00:01:24;;;;;;;8.87;4.70;;;;;;;;;;5014270;28;20180;-70
2023/10/24 00:03:50;;;;;;;8.57;4.77;;;;;;;;;;5013936;28;20179;-70
2023/10/24 00:06:16;;;;;;;8.63;4.60;;;;;;;;;;5014191;28;20211;-70
2023/10/24 00:08:42;;;;;;;12.93;5.33;;;;;;;;;;5014421;28;20179;-70
2023/10/24 00:11:08;;;;;;;8.73;5.27;;;;;;;;;;5013892;28;20204;-69
2023/10/24 00:13:34;;;;;;;12.40;5.50;;;;;;;;;;5014021;28;20207;-70
2023/10/24 00:16:00;;;;;;;9.30;4.70;;;;;;;;;;5013725;28;20228;-71
2023/10/24 00:18:27;;;;;;;9.30;5.20;;;;;;;;;;5013806;28;20266;-71
2023/10/24 00:20:53;;;;;;;9.27;5.80;;;;;;;;;;5013702;28;20186;-70
2023/10/24 00:23:19;;;;;;;10.47;5.73;;;;;;;;;;5012725;28;20563;-70
2023/10/24 00:25:45;;;;;;;10.77;5.60;;;;;;;;;;5013766;28;20207;-70
2023/10/24 00:28:11;;;;;;;10.30;5.30;;;;;;;;;;5013528;28;20325;-70
2023/10/24 00:30:37;;;;;;;10.83;6.37;;;;;;;;;;5012276;28;20214;-70
2023/10/24 00:33:04;;;;;;;10.67;5.93;;;;;;;;;;5013557;28;20176;-70
2023/10/24 00:35:30;;;;;;;10.07;5.97;;;;;;;;;;5012076;28;20638;-70
2023/10/24 00:37:55;;;;;;;7.40;5.97;;;;;;;;;;5012301;28;20294;-70
2023/10/24 00:40:21;;;;;;;10.47;6.70;;;;;;;;;;5014751;28;20187;-70
2023/10/24 00:42:48;;;;;;;11.00;6.00;;;;;;;;;;5015743;28;20701;-71
2023/10/24 00:45:14;;;;;;;13.30;7.03;;;;;;;;;;5014186;28;20191;-71
2023/10/24 00:47:40;;;;;;;13.13;7.40;;;;;;;;;;5013897;28;20207;-70
2023/10/24 00:50:07;;;;;;;10.93;7.50;;;;;;;;;;5013919;28;20204;-71
2023/10/24 00:52:34;;;;;;;15.53;8.00;;;;;;;;;;5013701;28;20187;-71
2023/10/24 00:55:00;;;;;;;9.83;8.30;;;;;;;;;;5037800;22;20231;-70
2023/10/24 00:57:26;;;;;;;10.63;7.03;;;;;;;;;;5011614;28;20184;-69
2023/10/24 00:59:52;;;;;;;10.90;6.27;;;;;;;;;;5012912;28;20615;-68
2023/10/24 01:02:19;;;;;;;9.20;5.83;;;;;;;;;;5013500;28;20171;-69
2023/10/24 01:04:46;;;;;;;9.13;5.37;;;;;;;;;;5013042;28;20203;-71
2023/10/24 01:07:11;;;;;;;8.07;5.90;;;;;;;;;;5011429;28;20184;-69
2023/10/24 01:09:37;;;;;;;9.37;4.77;;;;;;;;;;5012762;28;20240;-70
2023/10/24 01:12:04;;;;;;;9.63;4.70;;;;;;;;;;5011351;28;20207;-69
2023/10/24 01:14:30;;;;;;;6.13;4.40;;;;;;;;;;5011484;28;20666;-70
2023/10/24 01:16:56;;;;;;;6.27;4.67;;;;;;;;;;5012691;28;20186;-69
2023/10/24 01:19:22;;;;;;;10.97;5.00;;;;;;;;;;5012678;28;20657;-70
2023/10/24 01:21:48;;;;;;;15.07;5.27;;;;;;;;;;5011197;28;20253;-69
2023/10/24 01:24:14;;;;;;;7.57;4.43;;;;;;;;;;5011371;28;20187;-69
2023/10/24 01:26:41;;;;;;;7.50;4.77;;;;;;;;;;5011519;28;20242;-69
2023/10/24 01:29:08;;;;;;;6.07;4.33;;;;;;;;;;5011441;28;20184;-69
2023/10/24 01:31:34;;;;;;;6.10;4.43;;;;;;;;;;5011408;28;20219;-70
2023/10/24 01:34:00;;;;;;;7.87;4.67;;;;;;;;;;5013379;28;20658;-69
2023/10/24 01:36:26;;;;;;;6.30;4.33;;;;;;;;;;5013173;28;20203;-70
2023/10/24 01:38:52;;;;;;;13.80;4.97;;;;;;;;;;5011877;28;20183;-69
2023/10/24 01:41:17;;;;;;;7.37;4.77;;;;;;;;;;5013002;28;20275;-69
2023/10/24 01:43:43;;;;;;;9.00;4.50;;;;;;;;;;5013520;28;20184;-70
2023/10/24 01:46:09;;;;;;;9.70;4.13;;;;;;;;;;5011748;28;20265;-69
2023/10/24 01:48:36;;;;;;;9.73;4.70;;;;;;;;;;5013071;28;20562;-69
2023/10/24 01:51:02;;;;;;;9.87;4.70;;;;;;;;;;5012467;28;20207;-69
2023/10/24 01:53:28;;;;;;;8.13;4.53;;;;;;;;;;5012511;28;20179;-69
2023/10/24 01:55:54;;;;;;;8.40;4.40;;;;;;;;;;5011192;28;20239;-70
2023/10/24 01:58:20;;;;;;;6.90;4.00;;;;;;;;;;5011266;28;20199;-70
2023/10/24 02:00:46;;;;;;;5.80;3.90;;;;;;;;;;5014287;28;20188;-70
2023/10/24 02:03:12;;;;;;;7.00;4.40;;;;;;;;;;5016160;28;20211;-69
2023/10/24 02:05:39;;;;;;;8.83;4.33;;;;;;;;;;5015832;28;20249;-69
2023/10/24 02:08:05;;;;;;;7.93;4.30;;;;;;;;;;5015941;28;20180;-69
2023/10/24 02:10:31;;;;;;;8.20;4.40;;;;;;;;;;5014469;28;20203;-69
2023/10/24 02:12:57;;;;;;;6.07;4.47;;;;;;;;;;5016064;28;20238;-70
2023/10/24 02:15:23;;;;;;;10.50;4.00;;;;;;;;;;5015805;28;20238;-69
2023/10/24 02:17:49;;;;;;;6.77;3.97;;;;;;;;;;5015978;28;20247;-69
2023/10/24 02:20:15;;;;;;;7.80;4.00;;;;;;;;;;5015765;28;20211;-69
2023/10/24 02:22:41;;;;;;;16.57;4.97;;;;;;;;;;5015759;28;20272;-69
2023/10/24 02:25:10;;;;;;;9.33;4.87;;;;;;;;;;5015080;28;20214;-69
2023/10/24 02:27:38;;;;;;;7.70;4.60;;;;;;;;;;5015732;28;20184;-69
2023/10/24 02:30:04;;;;;;;12.30;4.87;;;;;;;;;;5015543;28;20175;-69
2023/10/24 02:32:30;;;;;;;5.40;3.70;;;;;;;;;;5015280;28;20176;-69
2023/10/24 02:34:56;;;;;;;8.37;3.90;;;;;;;;;;5014068;28;20206;-69
2023/10/24 02:37:22;;;;;;;7.13;3.77;;;;;;;;;;5015671;28;20246;-70
2023/10/24 02:39:48;;;;;;;7.43;4.30;;;;;;;;;;5015658;28;20180;-69
2023/10/24 02:42:14;;;;;;;7.40;3.83;;;;;;;;;;5014724;28;20180;-69
2023/10/24 02:44:40;;;;;;;5.10;3.70;;;;;;;;;;5013856;28;20685;-69
2023/10/24 02:47:06;;;;;;;7.90;3.90;;;;;;;;;;5014329;28;20223;-69
2023/10/24 02:49:32;;;;;;;7.17;3.70;;;;;;;;;;5015070;28;20183;-69
2023/10/24 02:51:58;;;;;;;6.80;3.67;;;;;;;;;;5015361;28;20212;-70
2023/10/24 02:54:24;;;;;;;9.00;3.77;;;;;;;;;;5014636;28;20527;-69
2023/10/24 02:56:50;;;;;;;6.67;3.67;;;;;;;;;;5014363;28;20188;-69
2023/10/24 02:59:16;;;;;;;7.20;3.13;;;;;;;;;;5013629;28;20208;-69
2023/10/24 03:01:42;;;;;;;7.33;3.57;;;;;;;;;;5015478;28;20176;-69
2023/10/24 03:04:08;;;;;;;7.13;3.40;;;;;;;;;;5014740;28;20191;-69
2023/10/24 03:06:34;;;;;;;5.80;3.30;;;;;;;;;;5014925;28;20725;-69
2023/10/24 03:09:00;;;;;;;5.60;3.33;;;;;;;;;;5014784;28;20263;-69
2023/10/24 03:11:26;;;;;;;7.53;3.13;;;;;;;;;;5014896;28;20289;-69
2023/10/24 03:13:53;;;;;;;6.53;2.57;;;;;;;;;;5014701;28;20180;-69
2023/10/24 03:16:19;;;;;;;5.57;2.70;;;;;;;;;;5013299;28;20196;-69
2023/10/24 03:18:45;;;;;;;8.73;2.70;;;;;;;;;;5013623;28;20176;-69
2023/10/24 03:21:11;;;;;;;4.63;2.57;;;;;;;;;;5016538;28;20174;-69
2023/10/24 03:23:37;;;;;;;8.13;3.00;;;;;;;;;;5018414;28;20183;-70
2023/10/24 03:26:06;;;;;;;6.57;3.03;;;;;;;;;;5013555;28;20207;-69
2023/10/24 03:28:33;;;;;;;7.33;2.53;;;;;;;;;;5013470;28;20180;-69
2023/10/24 03:31:05;;;;;;;3.57;2.50;;;;;;;;;;5013265;28;20299;-70
2023/10/24 03:33:32;;;;;;;3.80;2.43;;;;;;;;;;5014861;28;20172;-68
2023/10/24 03:35:58;;;;;;;5.07;2.83;;;;;;;;;;5013027;28;20675;-69
2023/10/24 03:38:25;;;;;;;3.20;2.23;;;;;;;;;;5014870;28;20634;-69
2023/10/24 03:40:51;;;;;;;3.17;2.13;;;;;;;;;;5014858;28;20638;-68
2023/10/24 03:43:17;;;;;;;3.20;2.63;;;;;;;;;;5014365;28;20179;-69
2023/10/24 03:45:43;;;;;;;4.43;2.40;;;;;;;;;;5014448;28;20203;-69
2023/10/24 03:48:10;;;;;;;2.07;1.87;;;;;;;;;;5014202;28;20186;-69
2023/10/24 03:50:37;;;;;;;5.20;2.00;;;;;;;;;;5012830;28;20403;-69
2023/10/24 03:53:04;;;;;;;2.20;2.00;;;;;;;;;;5014539;28;20172;-69
2023/10/24 03:55:30;;;;;;;3.27;2.53;;;;;;;;;;5012825;28;20223;-67
2023/10/24 03:57:56;;;;;;;5.33;2.43;;;;;;;;;;5012921;28;20190;-69
2023/10/24 04:00:22;;;;;;;4.63;2.40;;;;;;;;;;5013997;28;20665;-69
2023/10/24 04:02:52;;;;;;;4.43;2.40;;;;;;;;;;5013071;28;20184;-68
2023/10/24 04:05:18;;;;;;;3.43;2.17;;;;;;;;;;5014080;28;20199;-69
2023/10/24 04:07:44;;;;;;;3.70;1.97;;;;;;;;;;5014837;28;20194;-69
2023/10/24 04:10:12;;;;;;;2.40;2.10;;;;;;;;;;5015667;28;20219;-69
2023/10/24 04:12:38;;;;;;;1.80;1.70;;;;;;;;;;5012990;28;20180;-69
2023/10/24 04:15:05;;;;;;;2.70;1.70;;;;;;;;;;5014215;28;20295;-69
2023/10/24 04:17:32;;;;;;;3.27;1.80;;;;;;;;;;5015219;28;20262;-69
2023/10/24 04:19:58;;;;;;;1.80;1.60;;;;;;;;;;5014255;28;20183;-69
2023/10/24 04:22:24;;;;;;;3.27;2.10;;;;;;;;;;5012682;28;20230;-69
2023/10/24 04:24:50;;;;;;;2.70;2.00;;;;;;;;;;5014585;28;20745;-69
2023/10/24 04:27:16;;;;;;;3.43;2.10;;;;;;;;;;5013621;28;20563;-68
2023/10/24 04:29:42;;;;;;;3.23;2.10;;;;;;;;;;5014164;28;20215;-68
2023/10/24 04:32:08;;;;;;;2.60;1.93;;;;;;;;;;5017019;28;20230;-68
2023/10/24 04:34:34;;;;;;;5.17;2.13;;;;;;;;;;5022026;28;20292;-69
2023/10/24 04:37:01;;;;;;;4.37;2.30;;;;;;;;;;5021814;28;20238;-69
2023/10/24 04:39:27;;;;;;;3.60;2.30;;;;;;;;;;5020444;28;20182;-69
2023/10/24 04:41:54;;;;;;;5.40;2.40;;;;;;;;;;5020222;28;20187;-69
2023/10/24 04:44:20;;;;;;;2.87;2.30;;;;;;;;;;5015045;28;20183;-69
2023/10/24 04:46:46;;;;;;;2.20;2.00;;;;;;;;;;5012442;28;20274;-68
2023/10/24 04:49:13;;;;;;;2.93;2.30;;;;;;;;;;5013505;28;20180;-68
2023/10/24 04:51:39;;;;;;;3.00;2.03;;;;;;;;;;5011898;28;20218;-69
2023/10/24 04:54:06;;;;;;;3.03;2.00;;;;;;;;;;5011779;28;20184;-68
2023/10/24 04:56:32;;;;;;;2.47;1.90;;;;;;;;;;5011878;28;20303;-68
2023/10/24 04:58:58;;;;;;;2.10;1.90;;;;;;;;;;5011733;28;20179;-69
2023/10/24 05:01:24;;;;;;;4.70;1.90;;;;;;;;;;5011934;28;20183;-69
2023/10/24 05:03:50;;;;;;;4.43;2.20;;;;;;;;;;5013716;28;20540;-68
2023/10/24 05:06:16;;;;;;;2.70;2.40;;;;;;;;;;5013689;28;20287;-68
2023/10/24 05:08:42;;;;;;;4.33;2.37;;;;;;;;;;5013762;28;20634;-68
2023/10/24 05:11:08;;;;;;;2.57;2.37;;;;;;;;;;5015691;28;20199;-69
2023/10/24 05:13:34;;;;;;;7.60;2.50;;;;;;;;;;5015445;28;20587;-68
2023/10/24 05:16:00;;;;;;;5.07;2.43;;;;;;;;;;5015074;28;20238;-68
2023/10/24 05:18:26;;;;;;;2.70;2.43;;;;;;;;;;5015488;28;20180;-68
2023/10/24 05:20:52;;;;;;;2.83;2.40;;;;;;;;;;5014857;28;20194;-69
2023/10/24 05:23:18;;;;;;;3.87;2.40;;;;;;;;;;5013953;28;20180;-69
2023/10/24 05:25:44;;;;;;;2.60;2.40;;;;;;;;;;5015608;28;20693;-68
2023/10/24 05:28:10;;;;;;;4.13;2.73;;;;;;;;;;5015703;28;20670;-69
2023/10/24 05:30:39;;;;;;;2.77;2.53;;;;;;;;;;5015904;28;20299;-69
2023/10/24 05:33:05;;;;;;;3.57;2.57;;;;;;;;;;5016173;28;20172;-69
2023/10/24 05:35:35;;;;;;;5.17;2.50;;;;;;;;;;5015401;28;20214;-69
2023/10/24 05:38:01;;;;;;;4.37;2.33;;;;;;;;;;5017250;28;20176;-69
2023/10/24 05:40:27;;;;;;;4.60;2.63;;;;;;;;;;5016909;28;20180;-69
2023/10/24 05:42:53;;;;;;;3.07;2.57;;;;;;;;;;5015479;28;20258;-68
2023/10/24 05:45:21;;;;;;;4.73;2.50;;;;;;;;;;5015319;28;20642;-68
2023/10/24 05:47:48;;;;;;;5.67;4.40;;;;;;;;;;5017055;28;20258;-69
2023/10/24 05:50:13;;;;;;;7.00;4.97;;;;;;;;;;5016513;28;20218;-65
2023/10/24 05:52:39;;;;;;;6.73;5.23;;;;;;;;;;5016550;28;20176;-66
2023/10/24 05:55:05;;;;;;;7.27;5.07;;;;;;;;;;5016405;28;20237;-65
2023/10/24 05:57:31;;;;;;;7.23;5.10;;;;;;;;;;5016487;28;20183;-66
2023/10/24 05:59:57;;;;;;;7.13;6.40;;;;;;;;;;5015026;28;20230;-65
2023/10/24 06:02:23;;;;;;;6.50;4.77;;;;;;;;;;5016089;28;20176;-67
2023/10/24 06:04:49;;;;;;;10.33;5.60;;;;;;;;;;5014392;28;20195;-66
2023/10/24 06:07:15;;;;;;;7.50;4.50;;;;;;;;;;5014379;28;20183;-66
2023/10/24 06:09:41;;;;;;;7.63;4.70;;;;;;;;;;5014296;28;20238;-65
2023/10/24 06:12:10;;;;;;;13.47;10.27;;;;;;;;;;5015531;28;20210;-65
2023/10/24 06:14:36;;;;;;;7.70;6.37;;;;;;;;;;5015991;28;20658;-66
2023/10/24 06:17:02;;;;;;;8.13;5.97;;;;;;;;;;5016135;28;20610;-65
2023/10/24 06:19:29;;;;;;;15.17;12.23;;;;;;;;;;5015362;28;20191;-66
2023/10/24 06:21:55;;;;;;;7.67;4.57;;;;;;;;;;5015381;28;20668;-66
2023/10/24 06:24:21;;;;;;;5.03;4.50;;;;;;;;;;5015767;28;20180;-66
2023/10/24 06:26:47;;;;;;;4.93;4.43;;;;;;;;;;5015230;28;20187;-66
2023/10/24 06:29:13;;;;;;;10.03;5.00;;;;;;;;;;5015486;28;20258;-66
2023/10/24 06:31:39;;;;;;;4.03;3.63;;;;;;;;;;5015175;28;20204;-65
2023/10/24 06:34:06;;;;;;;5.87;3.83;;;;;;;;;;5015236;28;20183;-66
2023/10/24 06:36:34;;;;;;;6.50;4.03;;;;;;;;;;5015429;28;20176;-66
2023/10/24 06:39:02;;;;;;;3.40;3.10;;;;;;;;;;5015305;28;20172;-66
2023/10/24 06:41:28;;;;;;;6.80;3.27;;;;;;;;;;5015196;28;20228;-66
2023/10/24 06:43:53;;;;;;;3.43;3.13;;;;;;;;;;5015045;28;20624;-65
2023/10/24 06:46:19;;;;;;;5.87;2.63;;;;;;;;;;5013118;28;20674;-65
2023/10/24 06:48:45;;;;;;;3.20;2.80;;;;;;;;;;5014888;28;20176;-66
2023/10/24 06:51:11;;;;;;;3.93;2.73;;;;;;;;;;5014766;28;20692;-65
2023/10/24 06:53:37;;;;;;;3.67;2.80;;;;;;;;;;5013393;28;20275;-65
2023/10/24 06:56:03;;;;;;;6.00;2.90;;;;;;;;;;5013589;28;20211;-66
2023/10/24 06:58:29;;;;;;;3.60;2.70;;;;;;;;;;5014787;28;20186;-66
2023/10/24 07:00:55;;;;;;;3.83;3.00;;;;;;;;;;5014791;28;20176;-65
2023/10/24 07:03:21;;;;;;;6.00;2.73;;;;;;;;;;5014062;28;20176;-64
2023/10/24 07:05:51;;;;;;;4.37;3.20;;;;;;;;;;5015215;28;20199;-66
2023/10/24 07:08:17;;;;;;;3.90;3.27;;;;;;;;;;5014629;28;20263;-66
2023/10/24 07:10:43;;;;;;;3.10;2.60;;;;;;;;;;5014388;28;20203;-65
2023/10/24 07:13:11;;;;;;;3.00;2.63;;;;;;;;;;5013159;28;20184;-66
2023/10/24 07:15:37;;;;;;;2.77;2.50;;;;;;;;;;5014370;28;20634;-66
2023/10/24 07:18:03;;;;;;;3.43;2.87;;;;;;;;;;5014585;28;20180;-66
2023/10/24 07:20:29;;;;;;;6.13;2.67;;;;;;;;;;5014473;28;20583;-65
2023/10/24 07:22:55;;;;;;;2.83;2.50;;;;;;;;;;5014587;28;20176;-66
2023/10/24 07:25:21;;;;;;;5.37;2.60;;;;;;;;;;5012841;28;20211;-66
2023/10/24 07:27:47;;;;;;;4.40;2.83;;;;;;;;;;5014253;28;20509;-66
2023/10/24 07:30:13;;;;;;;5.13;2.67;;;;;;;;;;5014170;28;20191;-66
2023/10/24 07:32:39;;;;;;;2.30;2.10;;;;;;;;;;5012792;28;20191;-66
2023/10/24 07:35:05;;;;;;;3.77;2.67;;;;;;;;;;5014114;28;20196;-66
2023/10/24 07:37:35;;;;;;;3.20;2.40;;;;;;;;;;5014124;28;20214;-66
2023/10/24 07:40:01;;;;;;;4.50;2.60;;;;;;;;;;5012943;28;20172;-65
2023/10/24 07:42:27;;;;;;;2.83;2.10;;;;;;;;;;5030707;22;20785;-69
2023/10/24 07:44:53;;;;;;;2.80;2.07;;;;;;;;;;5018520;28;20533;-68
2023/10/24 07:47:19;;;;;;;2.93;2.33;;;;;;;;;;5027445;28;20251;-70
2023/10/24 07:49:45;;;;;;;4.40;2.33;;;;;;;;;;5027119;28;20259;-69
2023/10/24 07:52:11;;;;;;;2.10;1.90;;;;;;;;;;5015727;28;20231;-68
2023/10/24 07:54:37;;;;;;;3.87;2.27;;;;;;;;;;5014981;28;20545;-68
2023/10/24 07:57:05;;;;;;;6.93;2.10;;;;;;;;;;5015110;28;20249;-70
2023/10/24 07:59:31;;;;;;;2.90;2.17;;;;;;;;;;5012954;28;20183;-70
2023/10/24 08:01:57;;;;;;;4.87;2.40;;;;;;;;;;5014641;28;20207;-70
2023/10/24 08:04:42;;;;;;;2.70;2.40;;;;;;;;;;5014892;28;20180;-70
2023/10/24 08:07:08;;;;;;;5.90;2.00;;;;;;;;;;5013347;28;20211;-68
2023/10/24 08:09:34;;;;;;;4.47;2.17;;;;;;;;;;5013218;28;20231;-68
2023/10/24 08:12:00;;;;;;;4.47;2.60;;;;;;;;;;5014512;28;20207;-68
2023/10/24 08:14:26;;;;;;;2.23;1.83;;;;;;;;;;5014610;28;20198;-68
2023/10/24 08:16:52;;;;;;;4.57;2.37;;;;;;;;;;5013168;28;20650;-68
2023/10/24 08:19:18;;;;;;;2.63;2.33;;;;;;;;;;5012954;28;20175;-70
2023/10/24 08:21:44;;;;;;;3.80;1.90;;;;;;;;;;5012624;28;20253;-70
2023/10/24 08:24:10;;;;;;;2.77;2.00;;;;;;;;;;5014501;28;20642;-71
2023/10/24 08:26:36;;;;;;;2.13;1.90;;;;;;;;;;5014153;28;20657;-70
2023/10/24 08:29:02;;;;;;;3.40;2.10;;;;;;;;;;5014267;28;20184;-68
2023/10/24 08:31:28;;;;;;;4.27;2.27;;;;;;;;;;5012573;28;20223;-68
2023/10/24 08:33:54;;;;;;;2.47;2.03;;;;;;;;;;5012806;28;20230;-71
2023/10/24 08:36:20;;;;;;;3.37;2.20;;;;;;;;;;5012713;28;20187;-68
2023/10/24 08:38:46;;;;;;;3.77;2.03;;;;;;;;;;5014003;28;20260;-68
2023/10/24 08:41:12;;;;;;;3.80;2.10;;;;;;;;;;5014042;28;20179;-68
2023/10/24 08:43:39;;;;;;;3.50;2.17;;;;;;;;;;5012292;28;20253;-69
2023/10/24 08:46:05;;;;;;;2.77;2.20;;;;;;;;;;5014233;28;20219;-68
2023/10/24 08:48:34;;;;;;;2.63;2.10;;;;;;;;;;5012218;28;20190;-68
2023/10/24 08:51:00;;;;;;;3.23;2.30;;;;;;;;;;5013716;28;20203;-69
2023/10/24 08:53:26;;;;;;;3.10;2.30;;;;;;;;;;5013690;28;20199;-68
2023/10/24 08:55:53;;;;;;;4.37;2.17;;;;;;;;;;5012391;28;20270;-69
2023/10/24 08:58:20;;;;;;;2.40;2.03;;;;;;;;;;5012874;28;20563;-69
2023/10/24 09:00:49;;;;;;;4.50;2.20;;;;;;;;;;5013874;28;20195;-69
2023/10/24 09:03:18;;;;;;;4.00;2.30;;;;;;;;;;5012206;28;20700;-68
2023/10/24 09:05:45;;;;;;;4.77;2.77;;;;;;;;;;5014060;28;20190;-69
2023/10/24 09:08:13;;;;;;;4.07;2.17;;;;;;;;;;5012406;28;20184;-68
2023/10/24 09:10:39;;;;;;;2.90;2.30;;;;;;;;;;5015834;28;20218;-69
2023/10/24 09:13:07;;;;;;;2.77;2.13;;;;;;;;;;5017578;28;20195;-69
2023/10/24 09:15:37;;;;;;;2.17;1.80;;;;;;;;;;5017584;28;20180;-69
2023/10/24 09:18:06;;;;;;;2.23;1.80;;;;;;;;;;5017418;28;20172;-68
2023/10/24 09:20:32;;;;;;;2.90;1.90;;;;;;;;;;5017465;28;20720;-69
2023/10/24 09:23:06;;;;;;;2.10;1.90;;;;;;;;;;5017620;28;20627;-69
2023/10/24 09:25:32;;;;;;;4.53;1.90;;;;;;;;;;5015829;28;20176;-68
2023/10/24 09:28:14;;;;;;;1.73;1.60;;;;;;;;;;5016387;28;20188;-68
2023/10/24 09:30:40;;;;;;;4.47;1.70;;;;;;;;;;5016078;28;20680;-69
2023/10/24 09:33:06;;;;;;;2.77;2.00;;;;;;;;;;5017484;28;20203;-69
2023/10/24 09:35:32;;;;;;;2.67;1.93;;;;;;;;;;5017709;28;20172;-69
2023/10/24 09:37:59;;;;;;;1.93;1.70;;;;;;;;;;5016095;28;20179;-68
2023/10/24 09:40:33;;;;;;;5.07;1.70;;;;;;;;;;5017671;28;20179;-69
2023/10/24 09:43:00;;;;;;;1.97;1.60;;;;;;;;;;5017248;28;20289;-69
2023/10/24 09:45:27;;;;;;;4.47;1.87;;;;;;;;;;5017008;28;20179;-68
2023/10/24 09:47:53;;;;;;;2.07;1.87;;;;;;;;;;5017037;28;20234;-69
2023/10/24 09:50:20;;;;;;;2.20;1.50;;;;;;;;;;5016949;28;20239;-69
2023/10/24 09:52:47;;;;;;;4.03;1.60;;;;;;;;;;5015485;28;20211;-68
2023/10/24 09:55:14;;;;;;;3.50;2.50;;;;;;;;;;5015852;28;20266;-68
2023/10/24 09:57:40;;;;;;;1.93;1.67;;;;;;;;;;5015573;28;20179;-70
2023/10/24 10:00:11;;;;;;;1.80;1.50;;;;;;;;;;5015486;28;20180;-69
2023/10/24 10:02:41;;;;;;;4.00;2.07;;;;;;;;;;5017209;28;20203;-69
2023/10/24 10:05:08;;;;;;;2.73;2.00;;;;;;;;;;5016651;28;20576;-69
2023/10/24 10:07:34;;;;;;;4.23;2.10;;;;;;;;;;5015474;28;20183;-69
2023/10/24 10:10:00;;;;;;;5.73;1.93;;;;;;;;;;5016526;28;20179;-69
2023/10/24 10:12:27;;;;;;;3.40;2.07;;;;;;;;;;5015253;28;20242;-70
2023/10/24 10:15:14;;;;;;;2.53;2.20;;;;;;;;;;5015493;28;20310;-70
2023/10/24 10:17:59;;;;;;;3.80;1.80;;;;;;;;;;5016745;28;20186;-70
2023/10/24 10:20:31;;;;;;;2.57;1.90;;;;;;;;;;5014475;28;20558;-70
2023/10/24 10:23:12;;;;;;;4.90;2.03;;;;;;;;;;5016875;28;20204;-69
2023/10/24 10:25:52;;;;;;;3.53;1.70;;;;;;;;;;5016702;28;20180;-70
2023/10/24 10:28:24;;;;;;;2.30;1.87;;;;;;;;;;5015857;28;20184;-70
2023/10/24 10:30:56;;;;;;;3.90;1.90;;;;;;;;;;5014941;28;20246;-70
2023/10/24 10:33:23;;;;;;;5.53;2.23;;;;;;;;;;5016385;28;20236;-69
2023/10/24 10:36:15;;;;;;;2.93;2.20;;;;;;;;;;5022750;28;20239;-69
2023/10/24 10:38:44;;;;;;;5.47;1.80;;;;;;;;;;5030376;28;20192;-70
2023/10/24 10:41:23;;;;;;;6.03;2.17;;;;;;;;;;5027284;28;20176;-70
2023/10/24 10:43:49;;;;;;;1.67;1.13;;;;;;;;;;5015631;28;20206;-70
2023/10/24 10:46:16;;;;;;;3.53;2.00;;;;;;;;;;5014734;28;20642;-70
2023/10/24 10:48:43;;;;;;;3.83;2.07;;;;;;;;;;5015536;28;20203;-69
2023/10/24 10:51:13;;;;;;;3.60;2.00;;;;;;;;;;5017142;28;20306;-70
2023/10/24 10:53:47;;;;;;;2.63;1.83;;;;;;;;;;5017007;28;20592;-69
2023/10/24 10:56:19;;;;;;;3.43;1.70;;;;;;;;;;5016430;28;20156;-71
2023/10/24 10:58:45;;;;;;;2.97;1.83;;;;;;;;;;5016291;28;20172;-69
2023/10/24 11:01:26;;;;;;;3.30;1.70;;;;;;;;;;5014381;28;20187;-69
2023/10/24 11:03:56;;;;;;;6.30;2.60;;;;;;;;;;5014672;28;20533;-69
2023/10/24 11:06:25;;;;;;;2.67;1.93;;;;;;;;;;5014872;28;20325;-68
2023/10/24 11:09:21;;;;;;;5.10;4.53;;;;;;;;;;5015649;28;20761;-69
2023/10/24 11:11:47;;;;;;;4.37;1.90;;;;;;;;;;5005769;28;20230;-68
2023/10/24 11:14:17;;;;;;;2.67;2.27;;;;;;;;;;5015298;28;20178;-68
2023/10/24 11:16:44;;;;;;;3.37;2.00;;;;;;;;;;5015357;28;20179;-68
2023/10/24 11:19:18;;;;;;;3.93;2.47;;;;;;;;;;5015729;28;20607;-68
2023/10/24 11:21:45;;;;;;;4.33;2.13;;;;;;;;;;5014910;28;20203;-68
2023/10/24 11:24:14;;;;;;;4.10;2.53;;;;;;;;;;5015207;28;20262;-68
2023/10/24 11:26:40;;;;;;;2.77;2.33;;;;;;;;;;5014823;28;20184;-68
2023/10/24 11:29:06;;;;;;;6.83;4.30;;;;;;;;;;5015048;28;20660;-69
2023/10/24 11:31:32;;;;;;;5.00;2.00;;;;;;;;;;5014617;28;20214;-69
2023/10/24 11:33:58;;;;;;;20.27;11.97;;;;;;;;;;5013524;28;20175;-69
2023/10/24 11:36:25;;;;;;;5.30;2.37;;;;;;;;;;5014257;28;20180;-68
2023/10/24 11:38:51;;;;;;;33.33;20.77;;;;;;;;;;5014672;28;20276;-68
2023/10/24 11:41:17;;;;;;;2.27;2.00;;;;;;;;;;5014456;28;20191;-69
2023/10/24 11:43:48;;;;;;;6.37;4.93;;;;;;;;;;5012986;28;20199;-69
2023/10/24 11:46:14;;;;;;;4.70;4.03;;;;;;;;;;5013310;28;20564;-69
2023/10/24 11:48:40;;;;;;;3.63;2.40;;;;;;;;;;5014521;28;20641;-69
2023/10/24 11:51:05;;;;;;;4.20;3.07;;;;;;;;;;5014307;28;20211;-69
2023/10/24 11:53:31;;;;;;;3.27;2.50;;;;;;;;;;5012848;28;20203;-68
2023/10/24 11:55:58;;;;;;;2.20;2.00;;;;;;;;;;5013130;28;20206;-68
2023/10/24 11:58:29;;;;;;;2.37;2.17;;;;;;;;;;5012864;28;20234;-69
2023/10/24 12:00:57;;;;;;;3.47;2.27;;;;;;;;;;5013208;28;20650;-69
2023/10/24 12:03:23;;;;;;;5.80;2.30;;;;;;;;;;5014453;28;20199;-68
2023/10/24 12:05:54;;;;;;;4.27;2.63;;;;;;;;;;5014208;28;20180;-68
2023/10/24 12:08:24;;;;;;;3.30;3.00;;;;;;;;;;5013002;28;20560;-69
2023/10/24 12:10:54;;;;;;;4.17;2.80;;;;;;;;;;5012721;28;20697;-69
2023/10/24 12:13:21;;;;;;;3.13;2.50;;;;;;;;;;5014007;28;20199;-69
2023/10/24 12:15:47;;;;;;;4.23;2.93;;;;;;;;;;5012713;28;20184;-69
2023/10/24 12:18:15;;;;;;;4.23;3.40;;;;;;;;;;5013203;28;20274;-70
2023/10/24 12:20:41;;;;;;;2.63;2.43;;;;;;;;;;5013138;28;20188;-70
2023/10/24 12:23:06;;;;;;;6.47;3.50;;;;;;;;;;5013051;28;20202;-71
2023/10/24 12:25:33;;;;;;;5.33;4.53;;;;;;;;;;5014414;28;20211;-70
2023/10/24 12:27:59;;;;;;;5.10;3.90;;;;;;;;;;5013193;28;20180;-69
2023/10/24 12:30:26;;;;;;;11.13;7.27;;;;;;;;;;5012834;28;20180;-69
2023/10/24 12:32:52;;;;;;;20.10;18.00;;;;;;;;;;5014620;28;20197;-68
2023/10/24 12:35:19;;;;;;;8.00;6.97;;;;;;;;;;5014240;28;20183;-70
2023/10/24 12:37:45;;;;;;;7.20;5.83;;;;;;;;;;5013049;28;20176;-70
2023/10/24 12:40:11;;;;;;;7.37;4.07;;;;;;;;;;5014723;28;20207;-70
2023/10/24 12:42:37;;;;;;;6.77;5.07;;;;;;;;;;5012731;28;20218;-69
2023/10/24 12:45:04;;;;;;;7.23;5.10;;;;;;;;;;5012644;28;20274;-70
2023/10/24 12:47:30;;;;;;;5.37;4.87;;;;;;;;;;5013555;28;20179;-68
2023/10/24 12:49:56;;;;;;;6.33;3.87;;;;;;;;;;5012371;28;20221;-70
2023/10/24 12:52:22;;;;;;;12.37;11.27;;;;;;;;;;5012240;28;20243;-71
2023/10/24 12:54:49;;;;;;;8.70;7.17;;;;;;;;;;5012256;28;20250;-70
2023/10/24 12:57:15;;;;;;;8.00;6.73;;;;;;;;;;5013317;28;20203;-69
2023/10/24 12:59:41;;;;;;;10.13;9.00;;;;;;;;;;5013267;28;20178;-69
2023/10/24 13:02:08;;;;;;;8.77;7.97;;;;;;;;;;5013474;28;20223;-69
2023/10/24 13:04:34;;;;;;;24.50;21.00;;;;;;;;;;5013605;28;20172;-70
2023/10/24 13:07:04;;;;;;;6.07;3.30;;;;;;;;;;5013715;28;20172;-69
2023/10/24 13:09:30;;;;;;;62.10;43.80;;;;;;;;;;5012784;28;20282;-71
2023/10/24 13:11:58;;;;;;;22.75;19.13;;;;;;;;;;5011217;28;20414;-70
2023/10/24 13:14:24;;;;;;;8.03;6.60;;;;;;;;;;5012519;28;20226;-70
2023/10/24 13:16:50;;;;;;;128.50;99.47;;;;;;;;;;5012921;28;20650;-70
2023/10/24 13:19:16;;;;;;;7.77;6.73;;;;;;;;;;5014215;28;20171;-71
2023/10/24 13:21:42;;;;;;;14.23;11.87;;;;;;;;;;5013959;28;20219;-71
2023/10/24 13:24:08;;;;;;;108.73;66.63;;;;;;;;;;5014457;28;20176;-71
2023/10/24 13:26:34;;;;;;;51.37;31.03;;;;;;;;;;5020161;28;20180;-70
2023/10/24 13:29:01;;;;;;;9.83;6.37;;;;;;;;;;5021856;28;20180;-71
2023/10/24 13:31:27;;;;;;;6.57;4.87;;;;;;;;;;5016309;28;20239;-71
2023/10/24 13:33:53;;;;;;;30.40;27.33;;;;;;;;;;5014437;28;20237;-71
2023/10/24 13:36:19;;;;;;;14.13;12.83;;;;;;;;;;5013988;28;20176;-71
2023/10/24 13:38:45;;;;;;;5.80;3.47;;;;;;;;;;5013332;28;20182;-71
2023/10/24 13:41:13;;;;;;;17.90;7.03;;;;;;;;;;5011986;28;20693;-71
2023/10/24 13:43:41;;;;;;;19.03;17.13;;;;;;;;;;5012112;28;20582;-71
2023/10/24 13:46:07;;;;;;;14.63;13.30;;;;;;;;;;5014032;28;20187;-71
2023/10/24 13:48:33;;;;;;;6.23;5.63;;;;;;;;;;5013642;28;20184;-71
2023/10/24 13:50:59;;;;;;;4.27;3.87;;;;;;;;;;5014086;28;20215;-71
2023/10/24 13:53:25;;;;;;;6.30;4.20;;;;;;;;;;5013756;28;20693;-71
2023/10/24 13:55:51;;;;;;;3.90;2.73;;;;;;;;;;5012377;28;20183;-70
2023/10/24 13:58:17;;;;;;;4.97;4.13;;;;;;;;;;5015351;28;20180;-71
2023/10/24 14:00:44;;;;;;;5.83;4.73;;;;;;;;;;5016794;28;20661;-70
2023/10/24 14:03:10;;;;;;;3.90;3.53;;;;;;;;;;5015443;28;20208;-71
2023/10/24 14:05:38;;;;;;;4.87;2.77;;;;;;;;;;5015441;28;20649;-72
2023/10/24 14:08:04;;;;;;;3.37;3.07;;;;;;;;;;5015297;28;20183;-70
2023/10/24 14:10:30;;;;;;;7.83;6.87;;;;;;;;;;5016795;28;20321;-70
2023/10/24 14:12:56;;;;;;;3.73;3.07;;;;;;;;;;5016266;28;20204;-70
2023/10/24 14:15:22;;;;;;;5.30;4.80;;;;;;;;;;5015603;28;20184;-71
2023/10/24 14:17:48;;;;;;;2.90;2.60;;;;;;;;;;5016669;28;20238;-70
2023/10/24 14:20:14;;;;;;;2.43;2.13;;;;;;;;;;5016845;28;20180;-70
2023/10/24 14:22:40;;;;;;;5.33;4.83;;;;;;;;;;5016375;28;20223;-69
2023/10/24 14:25:08;;;;;;;4.17;1.97;;;;;;;;;;5014833;28;20191;-69
2023/10/24 14:27:34;;;;;;;42.40;31.60;;;;;;;;;;5016673;28;20176;-70
2023/10/24 14:30:00;;;;;;;3.10;2.70;;;;;;;;;;5014914;28;20278;-69
2023/10/24 14:32:25;;;;;;;2.03;1.83;;;;;;;;;;5016014;28;20211;-69
2023/10/24 14:34:52;;;;;;;2.17;1.97;;;;;;;;;;5015332;28;20182;-70
2023/10/24 14:37:17;;;;;;;7.37;3.70;;;;;;;;;;5016391;28;20180;-70
2023/10/24 14:39:43;;;;;;;6.47;5.10;;;;;;;;;;5016184;28;20182;-70